Latest Weather Observations for Urandangi

IDQ60801

Issued at 8:32 pm EST Monday 2 May 2016 (issued every 30 minutes, with the page automatically refreshed every 10 minutes)

About weather observations | Map of weather stations | Latest weather observations for QLD | Other Formats
Station Details ID: 037058 Name: URANDANGI AERODROME Lat: -21.60 Lon: 138.37 Height: 178.6 m
Data from the previous 72 hours. | See also: Recent months at Urandangi
Date/Time
EST
Temp
°C
App
Temp
°C
Dew
Point
Rel
Hum
%
Delta-T
°C
Wind Press
QNH
hPa
Press
MSL
hPa
Rain
since 9 am
mm
Dir
 
Spd
km/h
Gust
km/h
Spd
kts
Gust
kts
02/08:30pm 24.5 22.1 12.5 47 6.9 S 17 22 9 12 1016.7 1016.2 0.0
02/08:00pm 24.9 22.6 11.8 44 7.5 S 15 20 8 11 1016.3 1015.8 0.0
02/07:30pm 25.5 22.5 12.0 43 7.8 SSE 19 24 10 13 1015.7 1015.2 0.0
02/07:00pm 25.9 22.8 11.6 40 8.2 SSE 19 24 10 13 1015.3 1014.8 0.0
02/06:30pm 26.6 23.4 11.9 40 8.5 SSE 20 28 11 15 1015.1 1014.6 0.0
02/06:00pm 27.7 23.9 11.3 36 9.4 SSE 22 30 12 16 1014.7 1014.2 0.0
02/05:30pm 28.4 23.8 11.0 34 10.0 SSE 26 35 14 19 1014.5 1014.0 0.0
02/05:00pm 29.1 24.5 11.2 33 10.3 SSE 26 35 14 19 1014.0 1013.5 0.0
02/04:30pm 29.8 24.5 11.3 32 10.7 SE 30 37 16 20 1013.8 1013.3 0.0
02/04:00pm 29.5 25.3 11.1 32 10.6 SSE 24 32 13 17 1013.9 1013.4 0.0
02/03:30pm 28.8 23.7 10.5 32 10.4 SSE 28 35 15 19 1014.1 1013.6 0.0
02/03:00pm 28.4 22.5 9.2 30 10.7 SSE 30 39 16 21 1014.3 1013.8 0.0
02/02:30pm 30.1 25.4 9.1 27 11.8 S 24 37 13 20 1014.6 1014.1 0.0
02/02:00pm 30.4 25.2 8.7 26 12.1 S 26 37 14 20 1014.7 1014.2 0.0
02/01:30pm 30.5 25.6 8.3 25 12.3 S 24 37 13 20 1014.9 1014.4 0.0
02/01:00pm 31.3 27.3 8.9 25 12.6 SSE 20 28 11 15 1014.9 1014.4 0.0
02/12:30pm 30.6 26.7 9.5 27 12.0 SSE 20 32 11 17 1015.1 1014.6 0.0
02/12:00pm 29.3 25.3 8.9 28 11.4 S 20 30 11 16 1015.7 1015.2 0.0
02/11:30am 27.2 23.2 8.1 30 10.4 S 19 26 10 14 1016.2 1015.7 0.0
02/11:00am 27.8 24.3 8.6 30 10.6 S 17 20 9 11 1016.1 1015.6 0.0
02/10:30am 26.3 22.9 7.8 31 10.0 S 15 20 8 11 1016.2 1015.7 0.0
02/10:00am 24.5 21.1 7.6 34 9.0 SSW 15 20 8 11 1016.2 1015.7 0.0
02/09:30am 24.2 21.2 7.8 35 8.7 S 13 19 7 10 1015.9 1015.4 0.0
02/09:00am 24.1 22.0 8.1 36 8.6 SSE 9 13 5 7 1015.5 1015.0 0.0
02/08:30am 22.6 20.1 8.0 39 7.7 S 11 17 6 9 1015.4 1014.9 0.0
02/08:00am 21.9 20.0 7.7 40 7.4 SSE 7 11 4 6 1015.2 1014.7 0.0
02/07:30am 20.1 18.3 7.8 45 6.4 S 7 9 4 5 1015.0 1014.5 0.0
02/07:00am 20.7 18.5 8.0 44 6.6 S 9 15 5 8 1014.7 1014.2 0.0
02/06:30am 21.0 18.8 8.0 43 6.8 S 9 13 5 7 1014.3 1013.8 0.0
02/06:00am 20.9 18.8 8.2 44 6.7 S 9 11 5 6 1014.3 1013.8 0.0
02/05:30am 21.4 19.3 8.3 43 6.9 S 9 13 5 7 1014.1 1013.6 0.0
02/05:00am 22.0 19.1 8.2 41 7.3 SSW 13 17 7 9 1014.0 1013.5 0.0
02/04:30am 22.7 19.9 8.4 40 7.6 S 13 20 7 11 1013.9 1013.4 0.0
02/04:00am 23.3 19.8 8.6 39 7.9 S 17 20 9 11 1014.0 1013.5 0.0
02/03:30am 23.7 22.2 10.4 43 7.4 S 9 13 5 7 1013.9 1013.4 0.0
02/03:00am 24.5 22.7 10.8 42 7.7 SSE 11 17 6 9 1013.7 1013.2 0.0
02/02:30am 25.2 22.7 11.0 41 8.0 SSE 15 19 8 10 1013.6 1013.0 0.0
02/02:00am 25.9 23.4 10.9 39 8.5 SSE 15 19 8 10 1013.7 1013.2 0.0
02/01:30am 26.4 23.9 10.9 38 8.8 SSE 15 19 8 10 1013.8 1013.3 0.0
02/01:00am 26.6 24.5 11.1 38 8.8 SSE 13 20 7 11 1013.9 1013.4 0.0
02/12:30am 26.5 24.4 11.0 38 8.8 SSE 13 17 7 9 1014.0 1013.5 0.0
02/12:00am 27.3 24.9 11.3 37 9.2 SSE 15 20 8 11 1014.4 1013.9 0.0
 
Date/Time
EST
Temp
°C
App
Temp
°C
Dew
Point
Rel
Hum
%
Delta-T
°C
Wind Press
QNH
hPa
Press
MSL
hPa
Rain
since 9 am
mm
Dir
 
Spd
km/h
Gust
km/h
Spd
kts
Gust
kts
01/11:30pm 27.3 26.0 11.3 37 9.2 S 9 15 5 8 1014.6 1014.1 0.0
01/11:00pm 27.6 26.2 10.8 35 9.6 ESE 9 11 5 6 1014.3 1013.8 0.0
01/10:30pm 29.7 28.5 11.7 33 10.5 ESE 9 13 5 7 1014.3 1013.8 0.0
01/10:00pm 27.5 26.5 11.1 36 9.4 E 7 11 4 6 1014.1 1013.6 0.0
01/09:30pm 29.0 28.2 11.6 34 10.1 SE 7 9 4 5 1013.9 1013.4 0.0
01/09:00pm 29.0 28.2 11.6 34 10.1 ESE 7 9 4 5 1013.9 1013.4 0.0
01/08:30pm 28.9 27.8 11.9 35 9.9 ESE 9 9 5 5 1013.7 1013.2 0.0
01/08:00pm 29.1 28.5 11.6 33 10.2 ESE 6 7 3 4 1013.4 1012.8 0.0
01/07:30pm 30.7 30.0 12.1 32 11.0 SSE 7 7 4 4 1013.2 1012.6 0.0
01/07:00pm 31.9 31.3 12.2 30 11.7 SSE 7 9 4 5 1012.9 1012.3 0.0
01/06:30pm 33.0 32.5 12.1 28 12.5 SSE 6 7 3 4 1012.6 1012.0 0.0
01/06:00pm 34.3 33.8 12.0 25 13.4 SE 6 7 3 4 1012.3 1011.7 0.0
01/05:30pm 35.2 34.2 12.2 25 13.9 SSE 9 11 5 6 1011.8 1011.3 0.0
01/05:00pm 36.3 35.8 11.9 23 14.7 E 6 9 3 5 1011.6 1011.1 0.0
01/04:30pm 37.0 36.2 11.8 22 15.2 ESE 7 11 4 6 1011.4 1010.9 0.0
01/04:00pm 37.5 37.0 12.2 22 15.4 ESE 6 11 3 6 1011.5 1011.0 0.0
01/03:30pm 37.3 37.2 12.0 22 15.3 NNW 4 11 2 6 1011.7 1011.2 0.0
01/03:00pm 37.3 37.2 12.0 22 15.3 WSW 4 11 2 6 1011.9 1011.4 0.0
01/02:30pm 36.9 36.3 11.7 22 15.2 SSW 6 15 3 8 1012.3 1011.7 0.0
01/02:00pm 37.3 37.5 12.0 22 15.3 NNE 2 7 1 4 1012.6 1012.0 0.0
01/01:30pm 36.5 36.2 13.3 25 14.3 WSW 7 15 4 8 1013.1 1012.5 0.0
01/01:00pm 36.0 35.6 14.1 27 13.6 W 9 15 5 8 1013.5 1012.9 0.0
01/12:30pm 34.6 34.4 12.9 27 13.2 W 6 9 3 5 1014.0 1013.5 0.0
01/12:00pm 34.7 34.7 13.5 28 13.0 SW 6 9 3 5 1014.5 1014.0 0.0
01/11:30am 33.0 32.8 13.6 31 11.8 SSE 7 9 4 5 1015.0 1014.5 0.0
01/11:00am 32.3 31.5 14.0 33 11.2 S 11 22 6 12 1015.3 1014.8 0.0
01/10:30am 30.1 31.0 15.0 40 9.3 S 4 4 2 2 1015.5 1015.0 0.0
01/10:00am 30.1 30.7 15.8 42 8.9 NW 7 13 4 7 1015.3 1014.8 0.0
01/09:30am 29.6 29.2 15.3 41 8.8 NNW 11 13 6 7 1015.1 1014.2 0.0
01/09:00am 29.2 28.2 14.6 41 8.9 NNW 13 15 7 8 1014.9 1014.0 0.0
01/08:30am 28.2 26.3 12.9 38 9.1 N 15 19 8 10 1014.7 1013.8 0.0
01/08:00am 26.6 25.6 12.3 41 8.3 N 9 13 5 7 1014.5 1013.6 0.0
01/07:30am 22.3 21.4 11.4 50 6.1 N 7 11 4 6 1014.1 1013.2 0.0
01/07:00am 23.1 22.6 12.1 50 6.3 NNE 6 11 3 6 1014.0 1013.1 0.0
01/06:30am 21.7 21.7 11.1 51 5.9 SE 2 4 1 2 1013.8 1012.9 0.0
01/06:00am 22.6 22.8 12.0 51 6.0 ENE 2 6 1 3 1013.3 1012.4 0.0
01/05:30am 24.6 23.8 11.2 43 7.6 N 6 6 3 3 1013.0 1012.1 0.0
01/05:00am 25.6 26.1 11.7 42 8.0 CALM 0 0 0 0 1012.9 1012.0 0.0
01/04:30am 26.6 26.2 11.1 38 8.8 N 4 6 2 3 1012.8 1011.9 0.0
01/04:00am 27.0 26.0 11.1 37 9.1 NNE 7 9 4 5 1012.7 1011.8 0.0
01/03:30am 26.7 26.0 12.0 40 8.5 NNE 7 9 4 5 1012.7 1011.8 0.0
01/03:00am 26.3 25.7 12.4 42 8.1 NE 7 9 4 5 1012.9 1012.0 0.0
01/02:30am 24.1 23.6 12.1 47 6.9 ENE 6 6 3 3 1013.0 1012.1 0.0
01/02:00am 24.4 23.7 11.4 44 7.4 NE 6 7 3 4 1013.1 1012.2 0.0
01/01:30am 25.1 24.6 12.0 44 7.5 NE 6 6 3 3 1013.3 1012.4 0.0
01/01:00am 24.8 25.5 12.1 45 7.3 CALM 0 0 0 0 1013.6 1012.7 0.0
01/12:30am 25.7 25.5 11.8 42 8.0 NE 4 6 2 3 1013.7 1012.8 0.0
01/12:00am 26.9 26.1 11.8 39 8.7 NE 7 9 4 5 1013.8 1012.9 0.0
 
Date/Time
EST
Temp
°C
App
Temp
°C
Dew
Point
Rel
Hum
%
Delta-T
°C
Wind Press
QNH
hPa
Press
MSL
hPa
Rain
since 9 am
mm
Dir
 
Spd
km/h
Gust
km/h
Spd
kts
Gust
kts
30/11:30pm 26.8 26.4 12.5 41 8.4 NE 6 7 3 4 1014.0 1013.1 0.0
30/11:00pm 26.8 27.2 12.5 41 8.4 NNE 2 4 1 2 1014.1 1013.2 0.0
30/10:30pm 27.7 27.0 11.3 36 9.4 NNE 6 7 3 4 1014.2 1013.3 0.0
30/10:00pm 27.9 27.2 11.5 36 9.5 NNE 6 7 3 4 1014.1 1013.2 0.0
30/09:30pm 29.2 28.9 11.3 33 10.4 NE 4 4 2 2 1014.1 1013.2 0.0
30/09:00pm 30.1 29.5 11.6 32 10.8 NE 6 7 3 4 1013.9 1013.0 0.0
30/08:30pm 30.1 29.5 11.6 32 10.8 NNE 6 6 3 3 1013.7 1012.8 0.0
30/08:00pm 30.1 29.6 12.1 33 10.6 NE 6 6 3 3 1013.3 1012.4 0.0
30/07:30pm 30.9 30.3 11.8 31 11.2 NNE 6 6 3 3 1013.0 1012.1 0.0
30/07:00pm 31.6 31.1 11.9 30 11.6 NNE 6 6 3 3 1012.5 1011.6 0.0
30/06:30pm 32.6 32.6 12.3 29 12.1 NE 4 6 2 3 1012.2 1011.3 0.0
30/06:00pm 34.1 33.9 11.9 26 13.3 N 4 6 2 3 1012.1 1011.2 0.0
30/05:30pm 34.8 34.1 11.9 25 13.7 N 7 9 4 5 1011.8 1011.0 0.0
30/05:00pm 35.0 33.5 12.0 25 13.8 N 11 17 6 9 1011.7 1010.9 0.0
30/04:30pm 36.1 35.3 11.7 23 14.6 N 7 17 4 9 1011.6 1010.8 0.0
30/04:00pm 35.7 34.2 12.0 24 14.3 N 11 17 6 9 1011.6 1010.8 0.0
30/03:30pm 35.0 33.3 12.6 26 13.6 NNW 13 17 7 9 1011.8 1011.0 0.0
30/03:00pm 35.4 33.3 12.4 25 13.9 N 15 24 8 13 1011.8 1011.0 0.0
30/02:30pm 35.4 33.9 13.0 26 13.7 NNW 13 26 7 14 1011.9 1011.1 0.0
30/02:00pm 35.0 33.2 13.2 27 13.3 NNW 15 30 8 16 1012.4 1011.5 0.0
30/01:30pm 34.4 32.6 13.3 28 12.9 N 15 24 8 13 1012.9 1012.0 0.0
30/01:00pm 34.4 32.6 13.3 28 12.9 N 15 24 8 13 1013.4 1012.5 0.0
30/12:30pm 36.1 34.6 13.0 25 14.1 N 13 24 7 13 1013.7 1012.8 0.0
30/12:00pm 35.2 33.2 12.8 26 13.6 N 15 28 8 15 1014.1 1013.2 0.0
30/11:30am 35.1 32.5 13.3 27 13.3 N 19 26 10 14 1014.6 1013.7 0.0
30/11:00am 34.9 32.5 13.7 28 13.0 N 19 26 10 14 1015.0 1014.1 0.0
30/10:30am 33.2 30.3 12.8 29 12.3 N 20 26 11 14 1015.3 1014.4 0.0
30/10:00am 33.0 30.6 12.6 29 12.2 N 17 24 9 13 1015.3 1014.4 0.0
30/09:30am 31.4 29.9 13.2 33 11.0 N 13 19 7 10 1015.2 1014.3 0.0
30/09:00am 29.9 29.2 13.2 36 10.0 NNE 9 13 5 7 1015.0 1014.1 0.0
30/08:30am 28.3 27.4 12.6 38 9.3 NNE 9 13 5 7 1014.8 1013.9 0.0
30/08:00am 27.0 26.3 11.9 39 8.7 NNE 7 9 4 5 1014.8 1013.9 0.0
30/07:30am 26.3 25.1 11.6 40 8.4 NNE 9 11 5 6 1014.7 1013.8 0.0
30/07:00am 26.1 24.9 11.5 40 8.4 NE 9 11 5 6 1014.4 1013.5 0.0
30/06:30am 25.9 24.5 10.9 39 8.5 NNE 9 11 5 6 1014.2 1013.3 0.0
30/06:00am 25.9 24.4 10.5 38 8.7 NE 9 9 5 5 1013.9 1013.0 0.0
30/05:30am 25.8 24.4 10.8 39 8.5 NE 9 11 5 6 1013.6 1012.7 0.0
30/05:00am 25.9 24.4 10.5 38 8.7 NE 9 11 5 6 1013.4 1012.5 0.0
30/04:30am 24.6 24.1 10.8 42 7.8 NE 4 6 2 3 1013.2 1012.3 0.0
30/04:00am 23.6 22.6 11.0 45 7.1 ENE 7 9 4 5 1013.3 1012.4 0.0
30/03:30am 22.0 21.0 10.2 47 6.5 ENE 6 6 3 3 1013.4 1012.5 0.0
30/03:00am 20.9 19.5 9.5 48 6.1 E 7 9 4 5 1013.5 1012.6 0.0
30/02:30am 21.1 20.2 9.4 47 6.3 ESE 4 6 2 3 1013.6 1012.7 0.0
30/02:00am 21.3 20.4 9.2 46 6.5 ESE 4 4 2 2 1013.8 1012.9 0.0
30/01:30am 22.2 21.3 9.4 44 6.9 ESE 4 6 2 3 1014.0 1013.1 0.0
30/01:00am 23.0 22.2 9.8 43 7.2 E 4 6 2 3 1014.2 1013.3 0.0
30/12:30am 23.3 22.2 10.0 43 7.3 ESE 6 7 3 4 1014.6 1013.7 0.0
30/12:00am 24.4 23.0 9.6 39 8.1 NE 7 9 4 5 1014.7 1013.8 0.0
 
Date/Time
EST
Temp
°C
App
Temp
°C
Dew
Point
Rel
Hum
%
Delta-T
°C
Wind Press
QNH
hPa
Press
MSL
hPa
Rain
since 9 am
mm
Dir
 
Spd
km/h
Gust
km/h
Spd
kts
Gust
kts
29/11:30pm 24.5 23.3 9.6 39 8.2 NE 6 7 3 4 1014.9 1014.0 0.0
29/11:00pm 25.6 24.7 10.6 39 8.4 NE 6 6 3 3 1015.0 1014.1 0.0
29/10:30pm 24.4 23.6 9.6 39 8.1 E 4 6 2 3 1014.9 1014.0 0.0
29/10:00pm 25.1 23.0 9.8 38 8.5 E 11 11 6 6 1014.8 1013.9 0.0
29/09:30pm 25.4 23.9 9.3 36 8.9 E 7 9 4 5 1014.8 1013.9 0.0
29/09:00pm 25.9 25.4 9.3 35 9.2 ESE 2 4 1 2 1014.6 1013.7 0.0

Other Formats:

Comma delimited format used in spreadsheet applications
http://www.bom.gov.au/fwo/IDQ60801/IDQ60801.94344.axf

JavaScript Object Notation format (JSON) in row-major order
http://www.bom.gov.au/fwo/IDQ60801/IDQ60801.94344.json